Time;durP1;ratioP1;P1;durP2;ratioP2;P2;SDS_P1;SDS_P2;PMS_P1;PMS_P2;Temp;Humidity;BMP_temperature;BMP_pressure;BME280_temperature;BME280_humidity;BME280_pressure;Samples;Min_cycle;Max_cycle;Signal;HPM_P1;HPM_P2
2023/04/16 00:03:08;;;;;;;;;;;;;;;16.48;38.00;95403.25;10464969;28;2040;-60
2023/04/16 00:08:08;;;;;;;;;;;;;;;16.51;37.89;95398.31;10464357;28;2130;-60
2023/04/16 00:13:08;;;;;;;;;;;;;;;16.54;37.82;95397.81;10473223;28;2106;-60
2023/04/16 00:18:09;;;;;;;;;;;;;;;16.56;37.81;95397.56;10460437;28;2098;-60
2023/04/16 00:23:12;;;;;;;;;;;;;;;16.59;37.74;95403.06;10460528;28;2010;-60
2023/04/16 00:28:12;;;;;;;;;;;;;;;16.60;37.84;95396.78;10476048;28;2052;-60
2023/04/16 00:33:13;;;;;;;;;;;;;;;16.62;37.66;95399.16;10468657;28;2066;-60
2023/04/16 00:38:14;;;;;;;;;;;;;;;16.63;37.67;95393.66;10484307;28;2041;-60
2023/04/16 00:43:19;;;;;;;;;;;;;;;16.68;37.70;95400.72;10463677;28;2118;-60
2023/04/16 00:48:20;;;;;;;;;;;;;;;16.73;37.74;95398.16;10471872;28;2029;-60
2023/04/16 00:53:20;;;;;;;;;;;;;;;16.77;37.80;95399.19;10465306;28;1971;-60
2023/04/16 00:58:20;;;;;;;;;;;;;;;16.80;37.72;95396.06;10466475;28;2059;-60
2023/04/16 01:03:22;;;;;;;;;;;;;;;16.82;37.64;95396.59;10477908;28;1800;-60
2023/04/16 01:08:22;;;;;;;;;;;;;;;16.84;37.56;95397.13;10466940;28;1773;-60
2023/04/16 01:13:23;;;;;;;;;;;;;;;16.86;37.62;95395.03;10452073;28;1905;-59
2023/04/16 01:18:24;;;;;;;;;;;;;;;16.88;37.53;95395.56;10487824;28;1721;-60
2023/04/16 01:23:25;;;;;;;;;;;;;;;16.90;37.46;95406.56;10478390;28;2130;-60
2023/04/16 01:28:35;;;;;;;;;;;;;;;16.91;37.50;95403.69;10499066;28;1961;-60
2023/04/16 01:33:35;;;;;;;;;;;;;;;16.93;37.54;95409.47;10478161;28;1797;-60
2023/04/16 01:38:36;;;;;;;;;;;;;;;16.95;37.53;95420.47;10494764;28;1913;-59
2023/04/16 01:43:36;;;;;;;;;;;;;;;16.97;37.43;95412.34;10479468;28;1726;-60
2023/04/16 01:48:37;;;;;;;;;;;;;;;16.99;37.42;95416.28;10483974;28;1894;-60
2023/04/16 01:53:37;;;;;;;;;;;;;;;17.00;37.41;95423.06;10491920;28;1770;-60
2023/04/16 01:58:37;;;;;;;;;;;;;;;17.02;37.33;95420.97;10476455;28;1868;-60
2023/04/16 02:03:37;;;;;;;;;;;;;;;17.06;37.38;95416.81;10477382;28;1769;-60
2023/04/16 02:08:38;;;;;;;;;;;;;;;17.10;37.27;95415.25;10466739;28;1925;-60
2023/04/16 02:13:38;;;;;;;;;;;;;;;17.15;37.30;95416.28;10452307;28;2028;-60
2023/04/16 02:18:48;;;;;;;;;;;;;;;17.17;37.25;95416.81;10450695;28;1959;-60
2023/04/16 02:23:50;;;;;;;;;;;;;;;17.17;37.27;95417.63;10450170;28;2059;-60
2023/04/16 02:28:51;;;;;;;;;;;;;;;17.19;37.30;95426.00;10454492;28;1974;-60
2023/04/16 02:33:51;;;;;;;;;;;;;;;17.22;37.14;95422.88;10432916;28;2062;-60
2023/04/16 02:38:52;;;;;;;;;;;;;;;17.23;37.18;95424.44;10451817;28;2023;-60
2023/04/16 02:43:52;;;;;;;;;;;;;;;17.25;37.20;95424.94;10444144;28;2043;-60
2023/04/16 02:48:53;;;;;;;;;;;;;;;17.27;37.21;95428.09;10446944;28;2303;-61
2023/04/16 02:53:53;;;;;;;;;;;;;;;17.28;37.14;95429.69;10452566;28;2340;-60
2023/04/16 02:58:54;;;;;;;;;;;;;;;17.31;37.09;95433.63;10450874;28;2174;-60
2023/04/16 03:03:54;;;;;;;;;;;;;;;17.32;37.12;95438.59;10447677;28;2085;-60
2023/04/16 03:08:55;;;;;;;;;;;;;;;17.34;37.07;95443.56;10449316;28;2100;-60
2023/04/16 03:13:56;;;;;;;;;;;;;;;17.37;36.91;95443.06;10447673;28;2026;-60
2023/04/16 03:18:56;;;;;;;;;;;;;;;17.39;37.02;95435.72;10448306;28;2020;-60
2023/04/16 03:23:57;;;;;;;;;;;;;;;17.42;37.13;95445.69;10446199;28;2000;-60
2023/04/16 03:29:07;;;;;;;;;;;;;;;17.45;36.99;95447.78;10451482;28;1959;-60
2023/04/16 03:34:07;;;;;;;;;;;;;;;17.49;37.35;95449.66;10445364;28;2035;-60
2023/04/16 03:39:08;;;;;;;;;;;;;;;17.50;37.01;95464.31;10447367;28;2003;-60
2023/04/16 03:44:09;;;;;;;;;;;;;;;17.52;37.07;95457.00;10445029;28;2085;-60
2023/04/16 03:49:10;;;;;;;;;;;;;;;17.55;36.86;95459.09;10446687;28;2079;-60
2023/04/16 03:54:10;;;;;;;;;;;;;;;17.55;37.14;95450.44;10463798;28;2031;-60
2023/04/16 03:59:11;;;;;;;;;;;;;;;17.57;36.91;95456.22;10447643;28;2238;-60
2023/04/16 04:04:14;;;;;;;;;;;;;;;17.57;37.00;95464.88;10445831;28;2001;-60
2023/04/16 04:09:15;;;;;;;;;;;;;;;17.60;36.77;95477.44;10451426;28;2028;-60
2023/04/16 04:14:15;;;;;;;;;;;;;;;17.62;36.81;95472.72;10449048;28;2009;-59
2023/04/16 04:19:16;;;;;;;;;;;;;;;17.64;36.70;95478.50;10444873;28;2046;-59
2023/04/16 04:24:16;;;;;;;;;;;;;;;17.64;36.74;95475.09;10449009;28;2073;-60
2023/04/16 04:29:16;;;;;;;;;;;;;;;17.68;36.54;95479.53;10448533;28;2036;-60
2023/04/16 04:34:17;;;;;;;;;;;;;;;17.68;36.67;95486.63;10449805;28;1975;-60
2023/04/16 04:39:20;;;;;;;;;;;;;;;17.71;36.57;95483.47;10426805;28;2129;-61
2023/04/16 04:44:20;;;;;;;;;;;;;;;17.74;36.60;95485.59;10430354;28;2070;-59
2023/04/16 04:49:31;;;;;;;;;;;;;;;17.78;36.74;95492.66;10430121;28;1992;-60
2023/04/16 04:54:31;;;;;;;;;;;;;;;17.81;36.67;95497.38;10447703;28;2052;-60
2023/04/16 04:59:32;;;;;;;;;;;;;;;17.84;36.61;95507.34;10448000;28;1979;-60
2023/04/16 05:04:32;;;;;;;;;;;;;;;17.86;36.63;95505.25;10446089;28;2033;-60
2023/04/16 05:09:32;;;;;;;;;;;;;;;17.87;36.59;95506.81;10454787;28;2027;-60
2023/04/16 05:14:33;;;;;;;;;;;;;;;17.89;36.58;95515.22;10455123;28;1991;-60
2023/04/16 05:19:33;;;;;;;;;;;;;;;17.88;36.50;95513.66;10452858;28;2030;-60
2023/04/16 05:24:33;;;;;;;;;;;;;;;17.88;36.51;95515.47;10450677;28;2151;-58
2023/04/16 05:29:34;;;;;;;;;;;;;;;17.92;36.50;95526.22;10452056;28;2070;-60
2023/04/16 05:34:35;;;;;;;;;;;;;;;17.93;36.50;95528.56;10450782;28;2100;-60
2023/04/16 05:39:36;;;;;;;;;;;;;;;17.92;36.46;95529.63;10432070;28;2018;-60
2023/04/16 05:44:36;;;;;;;;;;;;;;;17.91;36.46;95532.53;10452871;28;2026;-60
2023/04/16 05:49:37;;;;;;;;;;;;;;;17.91;36.57;95528.06;10451164;28;2094;-61
2023/04/16 05:54:38;;;;;;;;;;;;;;;17.95;36.34;95536.22;10451990;28;2022;-61
2023/04/16 05:59:38;;;;;;;;;;;;;;;17.94;36.42;95538.03;10449003;28;2009;-60
2023/04/16 06:04:39;;;;;;;;;;;;;;;17.92;36.29;95545.38;10449447;28;2011;-58
2023/04/16 06:09:41;;;;;;;;;;;;;;;17.95;36.43;95552.69;10451981;28;2034;-60
2023/04/16 06:14:42;;;;;;;;;;;;;;;17.97;36.41;95555.84;10448541;28;2027;-60
2023/04/16 06:19:42;;;;;;;;;;;;;;;18.00;36.40;95551.94;10437397;28;2186;-60
2023/04/16 06:24:43;;;;;;;;;;;;;;;18.04;36.47;95559.00;10432824;28;1989;-58
2023/04/16 06:29:43;;;;;;;;;;;;;;;18.07;36.52;95555.09;10454436;28;1998;-58
2023/04/16 06:34:45;;;;;;;;;;;;;;;18.10;36.46;95557.97;10448313;28;2012;-58
2023/04/16 06:39:46;;;;;;;;;;;;;;;18.11;36.35;95562.19;10465326;28;2019;-57
2023/04/16 06:44:47;;;;;;;;;;;;;;;18.14;36.42;95568.72;10447114;28;2074;-59
2023/04/16 06:49:57;;;;;;;;;;;;;;;18.16;36.30;95571.88;10432040;28;2020;-59
2023/04/16 06:54:58;;;;;;;;;;;;;;;18.14;36.37;95579.22;10449819;28;1965;-59
2023/04/16 06:59:59;;;;;;;;;;;;;;;18.18;36.36;95575.00;10448210;28;2062;-60
2023/04/16 07:05:00;;;;;;;;;;;;;;;18.17;36.30;95583.94;10448211;28;1992;-59
2023/04/16 07:10:01;;;;;;;;;;;;;;;18.17;36.40;95591.81;10448557;28;2245;-61
2023/04/16 07:15:02;;;;;;;;;;;;;;;18.17;36.40;95587.38;10446836;28;2037;-59
2023/04/16 07:20:03;;;;;;;;;;;;;;;18.18;36.51;95590.75;10449729;28;1960;-59
2023/04/16 07:25:03;;;;;;;;;;;;;;;18.19;36.27;95587.88;10463844;28;2011;-59
2023/04/16 07:30:04;;;;;;;;;;;;;;;18.20;36.43;95593.91;10453514;28;2022;-60
2023/04/16 07:35:05;;;;;;;;;;;;;;;18.21;36.28;95587.63;10450994;28;2095;-59
2023/04/16 07:40:07;;;;;;;;;;;;;;;18.21;36.34;95595.50;10447868;28;2070;-59
2023/04/16 07:45:07;;;;;;;;;;;;;;;18.23;36.14;95591.56;10462072;28;2079;-60
2023/04/16 07:50:08;;;;;;;;;;;;;;;18.22;36.23;95605.72;10446360;28;2095;-59
2023/04/16 07:55:09;;;;;;;;;;;;;;;18.24;36.35;95608.06;10445858;28;2056;-59
2023/04/16 08:00:09;;;;;;;;;;;;;;;18.25;36.44;95601.78;10443973;28;2060;-59
2023/04/16 08:05:11;;;;;;;;;;;;;;;18.28;36.71;95612.53;10436826;28;2038;-63
2023/04/16 08:10:12;;;;;;;;;;;;;;;18.32;36.50;95616.22;10435496;28;1977;-64
2023/04/16 08:15:13;;;;;;;;;;;;;;;18.33;36.51;95614.38;10444213;28;1972;-65
2023/04/16 08:20:14;;;;;;;;;;;;;;;18.35;36.63;95615.69;10457278;28;2080;-64
2023/04/16 08:25:15;;;;;;;;;;;;;;;18.40;36.70;95623.56;10443670;28;2053;-64
2023/04/16 08:30:16;;;;;;;;;;;;;;;18.41;36.48;95624.34;10444493;28;2016;-64
2023/04/16 08:35:16;;;;;;;;;;;;;;;18.39;36.40;95622.00;10450080;28;2358;-63
2023/04/16 08:40:18;;;;;;;;;;;;;;;18.42;36.34;95628.56;10447108;28;1964;-65
2023/04/16 08:45:18;;;;;;;;;;;;;;;18.42;36.45;95631.94;10457405;28;2058;-64
2023/04/16 08:50:21;;;;;;;;;;;;;;;18.41;37.08;95633.03;10453869;28;1975;-64
2023/04/16 08:55:25;;;;;;;;;;;;;;;18.46;36.69;95632.28;10467869;28;2117;-63
2023/04/16 09:00:27;;;;;;;;;;;;;;;18.46;36.63;95640.13;10452099;28;2006;-66
2023/04/16 09:05:27;;;;;;;;;;;;;;;18.45;37.38;95651.69;10434115;28;2043;-65
2023/04/16 09:10:28;;;;;;;;;;;;;;;18.48;37.41;95651.16;10467311;28;2100;-67
2023/04/16 09:15:29;;;;;;;;;;;;;;;18.49;37.60;95655.34;10452448;28;2128;-66
2023/04/16 09:20:29;;;;;;;;;;;;;;;18.52;37.12;95658.25;10439643;28;2419;-66
2023/04/16 09:25:34;;;;;;;;;;;;;;;18.53;37.05;95664.28;10473672;28;1977;-62
2023/04/16 09:30:35;;;;;;;;;;;;;;;18.55;36.70;95656.94;10485675;28;1910;-62
2023/04/16 09:35:43;;;;;;;;;;;;;;;18.55;37.35;95659.56;10488598;28;1733;-64
2023/04/16 09:41:06;;;;;;;;;;;;;;;18.57;36.63;95658.25;10476810;28;1762;-64
2023/04/16 09:46:14;;;;;;;;;;;;;;;18.56;36.66;95655.88;10490021;28;1777;-64
2023/04/16 09:51:16;;;;;;;;;;;;;;;18.58;36.24;95664.28;10483542;28;1964;-64
2023/04/16 09:56:26;;;;;;;;;;;;;;;18.59;36.28;95655.34;10470600;28;1714;-64
2023/04/16 10:01:28;;;;;;;;;;;;;;;18.56;36.76;95659.31;10491345;28;1745;-64
2023/04/16 10:06:38;;;;;;;;;;;;;;;18.56;35.97;95669.00;10486411;28;1789;-64
2023/04/16 10:11:39;;;;;;;;;;;;;;;18.55;36.44;95664.81;10476734;28;1969;-64
2023/04/16 10:16:43;;;;;;;;;;;;;;;18.58;36.38;95670.34;10484092;28;1737;-63
2023/04/16 10:21:44;;;;;;;;;;;;;;;18.58;36.30;95672.16;10480437;28;1785;-63
2023/04/16 10:26:45;;;;;;;;;;;;;;;18.61;36.79;95671.63;10465914;28;1748;-63
2023/04/16 10:31:45;;;;;;;;;;;;;;;18.64;37.03;95663.25;10449256;28;1959;-63
2023/04/16 10:36:51;;;;;;;;;;;;;;;18.68;36.86;95669.53;10495600;28;1785;-63
2023/04/16 10:42:05;;;;;;;;;;;;;;;18.72;37.12;95677.66;10487411;28;1853;-63
2023/04/16 10:47:10;;;;;;;;;;;;;;;18.72;37.48;95670.59;10488415;28;1753;-64
2023/04/16 10:52:15;;;;;;;;;;;;;;;18.73;37.33;95666.94;10477997;28;1981;-62
2023/04/16 10:57:17;;;;;;;;;;;;;;;18.76;36.49;95676.09;10460521;28;1760;-62
2023/04/16 11:02:17;;;;;;;;;;;;;;;18.75;36.38;95685.03;10488515;28;1714;-62
2023/04/16 11:07:19;;;;;;;;;;;;;;;18.74;36.09;95688.69;10478105;28;1790;-62
2023/04/16 11:12:21;;;;;;;;;;;;;;;18.74;36.37;95686.88;10479886;28;1969;-62
2023/04/16 11:17:22;;;;;;;;;;;;;;;18.74;36.67;95688.69;10467106;28;1799;-62
2023/04/16 11:22:23;;;;;;;;;;;;;;;18.77;36.72;95688.19;10482277;28;1754;-65
2023/04/16 11:27:24;;;;;;;;;;;;;;;18.79;37.30;95694.75;10464335;28;2010;-65
2023/04/16 11:32:29;;;;;;;;;;;;;;;18.85;37.57;95693.69;10475432;28;1973;-64
2023/04/16 11:37:32;;;;;;;;;;;;;;;18.88;38.45;95695.00;10475401;28;1737;-64
2023/04/16 11:42:35;;;;;;;;;;;;;;;18.93;38.24;95698.41;10485402;28;1806;-64
2023/04/16 11:47:43;;;;;;;;;;;;;;;18.98;38.45;95692.38;10487338;28;1900;-68
2023/04/16 11:52:45;;;;;;;;;;;;;;;19.00;38.90;95693.66;10482002;28;1954;-65
2023/04/16 11:57:45;;;;;;;;;;;;;;;19.02;38.96;95701.31;10483843;28;1745;-64
2023/04/16 12:02:50;;;;;;;;;;;;;;;19.06;39.16;95710.22;10473265;28;1782;-64
2023/04/16 12:07:50;;;;;;;;;;;;;;;19.08;39.15;95702.88;10476325;28;2082;-64
2023/04/16 12:12:51;;;;;;;;;;;;;;;19.12;38.96;95702.09;10472931;28;1973;-64
2023/04/16 12:18:04;;;;;;;;;;;;;;;19.13;39.43;95698.38;10491311;28;1714;-64
2023/04/16 12:23:06;;;;;;;;;;;;;;;19.16;39.06;95704.97;10447759;28;2022;-64
2023/04/16 12:28:06;;;;;;;;;;;;;;;19.16;38.97;95713.63;10477626;28;1971;-64
2023/04/16 12:33:15;;;;;;;;;;;;;;;19.19;38.49;95707.84;10461676;28;2063;-64
2023/04/16 12:38:25;;;;;;;;;;;;;;;19.20;39.04;95714.69;10457978;28;2004;-63
2023/04/16 12:43:30;;;;;;;;;;;;;;;19.22;38.66;95703.91;10470583;28;2032;-60
2023/04/16 12:48:40;;;;;;;;;;;;;;;19.23;38.84;95705.47;10486681;28;1960;-61
2023/04/16 12:53:46;;;;;;;;;;;;;;;19.29;39.32;95712.28;10463680;28;1964;-64
2023/04/16 12:58:50;;;;;;;;;;;;;;;19.31;39.76;95718.84;10481919;28;2003;-61
2023/04/16 13:03:51;;;;;;;;;;;;;;;19.34;39.82;95712.31;10477263;28;1951;-62
2023/04/16 13:08:51;;;;;;;;;;;;;;;19.34;40.09;95717.56;10481621;28;1985;-61
2023/04/16 13:13:52;;;;;;;;;;;;;;;19.35;39.83;95709.41;10477409;28;1924;-61
2023/04/16 13:18:53;;;;;;;;;;;;;;;19.37;39.49;95712.56;10472680;28;1960;-61
2023/04/16 13:24:02;;;;;;;;;;;;;;;19.39;40.13;95712.31;10469250;28;1960;-61
2023/04/16 13:29:02;;;;;;;;;;;;;;;19.40;40.02;95719.94;10469434;28;2017;-64
2023/04/16 13:34:21;;;;;;;;;;;;;;;19.42;39.80;95727.53;10475214;28;2018;-64
2023/04/16 13:39:22;;;;;;;;;;;;;;;19.45;39.94;95727.03;10452203;28;1988;-64
2023/04/16 13:44:23;;;;;;;;;;;;;;;19.45;39.77;95730.41;10472857;28;2162;-64
2023/04/16 13:49:24;;;;;;;;;;;;;;;19.46;39.82;95729.38;10475218;28;2023;-65
2023/04/16 13:54:24;;;;;;;;;;;;;;;19.44;39.81;95731.47;10462738;28;1989;-65
2023/04/16 13:59:38;;;;;;;;;;;;;;;19.45;39.79;95733.03;10444718;28;2022;-64
2023/04/16 14:04:49;;;;;;;;;;;;;;;19.43;39.54;95732.53;10460667;28;2000;-63
2023/04/16 14:09:59;;;;;;;;;;;;;;;19.43;39.73;95729.88;10469153;28;1952;-64
2023/04/16 14:15:03;;;;;;;;;;;;;;;19.45;39.76;95734.91;10469659;28;2032;-64
2023/04/16 14:20:11;;;;;;;;;;;;;;;19.42;39.80;95738.84;10481101;28;2090;-64
2023/04/16 14:25:15;;;;;;;;;;;;;;;19.42;39.70;95735.41;10477833;28;1962;-64
2023/04/16 14:30:16;;;;;;;;;;;;;;;19.40;39.67;95730.44;10481279;28;2145;-65
2023/04/16 14:35:19;;;;;;;;;;;;;;;19.39;39.55;95736.75;10478845;28;1948;-65
2023/04/16 14:40:21;;;;;;;;;;;;;;;19.39;39.46;95728.09;10477529;28;1944;-64
2023/04/16 14:45:21;;;;;;;;;;;;;;;19.37;39.55;95736.22;10470126;28;2044;-64
2023/04/16 14:50:22;;;;;;;;;;;;;;;19.36;39.43;95733.84;10481540;28;1930;-64
2023/04/16 14:55:24;;;;;;;;;;;;;;;19.35;39.50;95733.06;10463394;28;2007;-64
2023/04/16 15:00:26;;;;;;;;;;;;;;;19.34;39.44;95726.25;10478712;28;2213;-64
2023/04/16 15:05:26;;;;;;;;;;;;;;;19.34;39.51;95734.13;10475274;28;1999;-64
2023/04/16 15:10:33;;;;;;;;;;;;;;;19.32;39.31;95744.09;10493540;28;1940;-64
2023/04/16 15:15:34;;;;;;;;;;;;;;;19.30;39.39;95735.69;10476283;28;1987;-64
2023/04/16 15:20:35;;;;;;;;;;;;;;;19.29;39.24;95734.09;10464196;28;1972;-65
2023/04/16 15:25:36;;;;;;;;;;;;;;;19.30;39.36;95742.78;10483432;28;1994;-64
2023/04/16 15:30:37;;;;;;;;;;;;;;;19.30;39.23;95735.69;10455845;28;2023;-64
2023/04/16 15:35:40;;;;;;;;;;;;;;;19.29;39.32;95744.63;10474489;28;1943;-63
2023/04/16 15:40:40;;;;;;;;;;;;;;;19.29;39.26;95744.63;10469213;28;1973;-63
2023/04/16 15:45:41;;;;;;;;;;;;;;;19.27;39.17;95735.41;10454545;28;1975;-63
2023/04/16 15:50:42;;;;;;;;;;;;;;;19.29;39.31;95747.25;10473004;28;1977;-63
2023/04/16 15:55:42;;;;;;;;;;;;;;;19.29;39.32;95749.88;10475474;28;1976;-64
2023/04/16 16:00:52;;;;;;;;;;;;;;;19.29;39.16;95749.88;10456512;28;2015;-63
2023/04/16 16:05:58;;;;;;;;;;;;;;;19.28;39.33;95748.31;10471414;28;1906;-64
2023/04/16 16:11:09;;;;;;;;;;;;;;;19.27;39.26;95749.34;10449379;28;2045;-63
2023/04/16 16:16:09;;;;;;;;;;;;;;;19.28;39.21;95745.69;10473800;28;1964;-65
2023/04/16 16:21:20;;;;;;;;;;;;;;;19.27;39.19;95753.81;10472277;28;1921;-65
2023/04/16 16:26:21;;;;;;;;;;;;;;;19.27;39.07;95748.56;10464102;28;2019;-62
2023/04/16 16:31:22;;;;;;;;;;;;;;;19.26;39.13;95758.28;10471928;28;1959;-62
2023/04/16 16:36:23;;;;;;;;;;;;;;;19.27;38.88;95753.81;10480554;28;2027;-62
2023/04/16 16:41:24;;;;;;;;;;;;;;;19.26;38.98;95758.28;10473895;28;1992;-61
2023/04/16 16:46:24;;;;;;;;;;;;;;;19.26;38.83;95763.56;10436006;28;2019;-61
2023/04/16 16:51:26;;;;;;;;;;;;;;;19.29;38.87;95770.91;10469262;28;2023;-60
2023/04/16 16:56:27;;;;;;;;;;;;;;;19.31;38.57;95762.72;10470888;28;1917;-60
2023/04/16 17:01:29;;;;;;;;;;;;;;;19.33;38.72;95771.97;10463997;28;1854;-60
2023/04/16 17:06:30;;;;;;;;;;;;;;;19.38;38.29;95764.09;10488990;28;1806;-61
2023/04/16 17:11:32;;;;;;;;;;;;;;;19.39;37.96;95760.38;10484761;28;1968;-60
2023/04/16 17:16:32;;;;;;;;;;;;;;;19.42;38.06;95764.34;10489201;28;1884;-64
2023/04/16 17:21:33;;;;;;;;;;;;;;;19.47;39.23;95775.63;10480504;28;1753;-64
2023/04/16 17:26:33;;;;;;;;;;;;;;;19.57;40.46;95782.72;10490412;28;1784;-64
2023/04/16 17:31:35;;;;;;;;;;;;;;;19.63;40.93;95788.75;10483621;28;1973;-64
2023/04/16 17:36:36;;;;;;;;;;;;;;;19.68;41.55;95794.78;10468581;28;1776;-64
2023/04/16 17:41:36;;;;;;;;;;;;;;;19.70;41.10;95792.66;10474478;28;1872;-63
2023/04/16 17:46:37;;;;;;;;;;;;;;;19.73;41.38;95797.41;10490145;28;1729;-63
2023/04/16 17:51:37;;;;;;;;;;;;;;;19.76;41.24;95799.53;10485380;28;1969;-63
2023/04/16 17:56:38;;;;;;;;;;;;;;;19.75;41.40;95807.66;10487579;28;1801;-64
2023/04/16 18:01:38;;;;;;;;;;;;;;;19.75;41.74;95813.72;10482488;28;1756;-64
2023/04/16 18:06:38;;;;;;;;;;;;;;;19.75;41.22;95823.44;10484640;28;1737;-65
2023/04/16 18:11:46;;;;;;;;;;;;;;;19.72;41.35;95830.00;10475008;28;1929;-64
2023/04/16 18:16:47;;;;;;;;;;;;;;;19.73;41.05;95842.13;10489147;28;2137;-64
2023/04/16 18:21:47;;;;;;;;;;;;;;;19.69;41.07;95843.72;10495738;28;1714;-65
2023/04/16 18:26:48;;;;;;;;;;;;;;;19.66;40.46;95846.09;10485216;28;1753;-65
2023/04/16 18:31:49;;;;;;;;;;;;;;;19.63;40.71;95846.59;10485584;28;1925;-65
2023/04/16 18:36:50;;;;;;;;;;;;;;;19.60;40.51;95853.16;10483514;28;1817;-64
2023/04/16 18:41:50;;;;;;;;;;;;;;;19.57;41.23;95852.91;10464824;28;1739;-64
2023/04/16 18:46:52;;;;;;;;;;;;;;;19.55;40.87;95863.72;10481695;28;1730;-65
2023/04/16 18:51:54;;;;;;;;;;;;;;;19.52;41.58;95866.06;10486572;28;1980;-66
2023/04/16 18:56:55;;;;;;;;;;;;;;;19.52;41.54;95872.13;10459818;28;1848;-64
2023/04/16 19:01:55;;;;;;;;;;;;;;;19.50;41.68;95876.84;10480407;28;1784;-64
2023/04/16 19:06:57;;;;;;;;;;;;;;;19.48;41.79;95879.75;10497281;28;1769;-64
2023/04/16 19:11:57;;;;;;;;;;;;;;;19.48;41.61;95885.00;10464773;28;1910;-64
2023/04/16 19:16:57;;;;;;;;;;;;;;;19.48;41.02;95890.25;10487226;28;1741;-63
2023/04/16 19:21:57;;;;;;;;;;;;;;;19.44;41.64;95889.22;10485756;28;1769;-63
2023/04/16 19:26:58;;;;;;;;;;;;;;;19.44;41.17;95889.22;10483116;28;2004;-64
2023/04/16 19:31:59;;;;;;;;;;;;;;;19.45;41.04;95885.50;10476717;28;2033;-65
2023/04/16 19:37:00;;;;;;;;;;;;;;;19.45;41.28;95887.38;10468279;28;1989;-65
2023/04/16 19:42:00;;;;;;;;;;;;;;;19.45;40.73;95890.00;10470473;28;1913;-65
2023/04/16 19:47:01;;;;;;;;;;;;;;;19.44;41.42;95893.66;10465235;28;1976;-63
2023/04/16 19:52:02;;;;;;;;;;;;;;;19.41;41.72;95884.47;10489742;28;1952;-63
2023/04/16 19:57:03;;;;;;;;;;;;;;;19.40;41.72;95885.53;10471237;28;2063;-63
2023/04/16 20:02:03;;;;;;;;;;;;;;;19.39;41.92;95889.19;10482365;28;1984;-63
2023/04/16 20:07:03;;;;;;;;;;;;;;;19.36;42.09;95891.56;10488405;28;1978;-63
2023/04/16 20:12:04;;;;;;;;;;;;;;;19.34;41.97;95883.94;10454171;28;2031;-63
2023/04/16 20:17:08;;;;;;;;;;;;;;;19.30;42.33;95893.38;10449943;28;2020;-62
2023/04/16 20:22:08;;;;;;;;;;;;;;;19.29;42.41;95880.47;10457551;28;1948;-62
2023/04/16 20:27:09;;;;;;;;;;;;;;;19.25;42.57;95889.94;10460934;28;1948;-62
2023/04/16 20:32:11;;;;;;;;;;;;;;;19.27;42.70;95886.00;10476350;28;2006;-63
2023/04/16 20:37:12;;;;;;;;;;;;;;;19.22;42.92;95891.28;10498759;28;1942;-63
2023/04/16 20:42:12;;;;;;;;;;;;;;;19.17;42.86;95891.25;10472423;28;2011;-64
2023/04/16 20:47:14;;;;;;;;;;;;;;;19.14;42.48;95878.66;10486069;28;1991;-64
2023/04/16 20:52:15;;;;;;;;;;;;;;;19.09;42.99;95886.50;10473992;28;1980;-64
2023/04/16 20:57:15;;;;;;;;;;;;;;;19.04;42.86;95894.38;10472241;28;2015;-64
2023/04/16 21:02:16;;;;;;;;;;;;;;;18.99;43.11;95886.50;10474285;28;1964;-63
2023/04/16 21:07:27;;;;;;;;;;;;;;;18.95;43.06;95893.31;10459632;28;1969;-63
2023/04/16 21:12:27;;;;;;;;;;;;;;;18.94;42.91;95898.84;10471522;28;2068;-63
2023/04/16 21:17:28;;;;;;;;;;;;;;;18.89;42.96;95896.19;10477356;28;1980;-63
2023/04/16 21:22:29;;;;;;;;;;;;;;;18.86;43.24;95892.25;10460618;28;2047;-64
2023/04/16 21:27:30;;;;;;;;;;;;;;;18.82;43.16;95890.38;10450415;28;2006;-63
2023/04/16 21:32:31;;;;;;;;;;;;;;;18.80;43.14;95898.53;10471910;28;1971;-63
2023/04/16 21:37:32;;;;;;;;;;;;;;;18.77;43.19;95896.44;10451992;28;1965;-62
2023/04/16 21:42:41;;;;;;;;;;;;;;;18.74;43.41;95890.88;10465403;28;1964;-62
2023/04/16 21:47:41;;;;;;;;;;;;;;;18.72;43.11;95895.59;10464570;28;2007;-62
2023/04/16 21:52:45;;;;;;;;;;;;;;;18.66;43.32;95897.44;10460903;28;1975;-62
2023/04/16 21:57:45;;;;;;;;;;;;;;;18.65;43.10;95895.84;10465767;28;1989;-61
2023/04/16 22:02:46;;;;;;;;;;;;;;;18.62;43.15;95897.16;10463893;28;1990;-62
2023/04/16 22:07:47;;;;;;;;;;;;;;;18.60;43.19;95890.59;10462073;28;2137;-63
2023/04/16 22:12:47;;;;;;;;;;;;;;;18.57;43.42;95888.47;10462701;28;2117;-61
2023/04/16 22:17:47;;;;;;;;;;;;;;;18.55;43.10;95891.34;10469833;28;2143;-61
2023/04/16 22:22:48;;;;;;;;;;;;;;;18.53;43.42;95884.78;10470391;28;2470;-63
2023/04/16 22:27:48;;;;;;;;;;;;;;;18.51;43.17;95884.25;10471097;28;2078;-63
2023/04/16 22:32:50;;;;;;;;;;;;;;;18.48;43.36;95890.81;10473109;28;2144;-61
2023/04/16 22:37:51;;;;;;;;;;;;;;;18.48;43.03;95890.03;10456482;28;2315;-62
2023/04/16 22:42:52;;;;;;;;;;;;;;;18.45;43.15;95887.91;10459997;28;2011;-62
2023/04/16 22:47:52;;;;;;;;;;;;;;;18.42;43.09;95875.28;10467656;28;2035;-62
2023/04/16 22:52:53;;;;;;;;;;;;;;;18.41;43.17;95884.16;10460226;28;2099;-60
2023/04/16 22:57:53;;;;;;;;;;;;;;;18.39;43.11;95881.00;10462773;28;2159;-61
2023/04/16 23:02:54;;;;;;;;;;;;;;;18.36;43.19;95887.56;10462156;28;2048;-61
2023/04/16 23:07:57;;;;;;;;;;;;;;;18.34;43.00;95875.75;10467846;28;1999;-61
2023/04/16 23:12:58;;;;;;;;;;;;;;;18.33;43.15;95885.47;10461185;28;1995;-62
2023/04/16 23:17:58;;;;;;;;;;;;;;;18.31;43.09;95884.13;10466651;28;1997;-61
2023/04/16 23:23:06;;;;;;;;;;;;;;;18.29;43.11;95880.97;10464102;28;1965;-61
2023/04/16 23:28:07;;;;;;;;;;;;;;;18.28;42.99;95877.56;10477427;28;2016;-61
2023/04/16 23:33:07;;;;;;;;;;;;;;;18.27;42.86;95885.69;10466553;28;1985;-63
2023/04/16 23:38:08;;;;;;;;;;;;;;;18.25;42.92;95893.03;10452515;28;1980;-62
2023/04/16 23:43:09;;;;;;;;;;;;;;;18.23;43.04;95882.00;10462256;28;2047;-61
2023/04/16 23:48:10;;;;;;;;;;;;;;;18.21;42.84;95894.59;10477459;28;2054;-63
2023/04/16 23:53:12;;;;;;;;;;;;;;;18.19;42.86;95883.56;10458905;28;2076;-62
2023/04/16 23:58:13;;;;;;;;;;;;;;;18.19;42.65;95878.31;10461534;28;2025;-61
